sensor_id;sensor_type;location;lat;lon;timestamp;P1;durP1;ratioP1;P2;durP2;ratioP2
12650;SDS011;6390;49.400;8.670;2023-05-10T03:33:32;1.40;;;1.30;;
12650;SDS011;6390;49.400;8.670;2023-05-10T03:35:58;1.23;;;1.15;;
12650;SDS011;6390;49.400;8.670;2023-05-10T03:38:25;1.50;;;1.40;;
12650;SDS011;6390;49.400;8.670;2023-05-10T03:40:51;2.13;;;1.30;;
12650;SDS011;6390;49.400;8.670;2023-05-10T03:43:17;1.50;;;1.30;;
12650;SDS011;6390;49.400;8.670;2023-05-10T03:45:43;1.40;;;1.30;;
12650;SDS011;6390;49.400;8.670;2023-05-10T03:48:09;1.80;;;1.33;;
12650;SDS011;6390;49.400;8.670;2023-05-10T03:50:36;1.70;;;1.50;;
12650;SDS011;6390;49.400;8.670;2023-05-10T03:53:02;1.60;;;1.50;;
12650;SDS011;6390;49.400;8.670;2023-05-10T03:58:17;1.58;;;1.48;;
12650;SDS011;6390;49.400;8.670;2023-05-10T04:00:43;1.67;;;1.58;;
12650;SDS011;6390;49.400;8.670;2023-05-10T04:03:10;2.00;;;1.77;;
12650;SDS011;6390;49.400;8.670;2023-05-10T04:05:37;2.30;;;1.92;;
12650;SDS011;6390;49.400;8.670;2023-05-10T04:08:03;1.73;;;1.63;;
12650;SDS011;6390;49.400;8.670;2023-05-10T04:10:30;1.80;;;1.70;;
12650;SDS011;6390;49.400;8.670;2023-05-10T04:12:56;1.60;;;1.50;;
12650;SDS011;6390;49.400;8.670;2023-05-10T04:15:23;2.20;;;1.73;;
12650;SDS011;6390;49.400;8.670;2023-05-10T04:17:49;1.88;;;1.70;;
12650;SDS011;6390;49.400;8.670;2023-05-10T04:20:16;2.50;;;1.88;;
12650;SDS011;6390;49.400;8.670;2023-05-10T04:22:42;1.88;;;1.77;;
12650;SDS011;6390;49.400;8.670;2023-05-10T04:25:08;2.03;;;1.83;;
12650;SDS011;6390;49.400;8.670;2023-05-10T04:27:35;1.80;;;1.70;;
12650;SDS011;6390;49.400;8.670;2023-05-10T04:30:01;3.10;;;1.83;;
12650;SDS011;6390;49.400;8.670;2023-05-10T04:32:27;2.13;;;1.92;;
12650;SDS011;6390;49.400;8.670;2023-05-10T04:34:54;3.28;;;1.75;;
12650;SDS011;6390;49.400;8.670;2023-05-10T04:37:20;2.63;;;1.90;;
12650;SDS011;6390;49.400;8.670;2023-05-10T04:39:47;2.00;;;1.80;;
12650;SDS011;6390;49.400;8.670;2023-05-10T04:42:13;2.03;;;1.80;;
12650;SDS011;6390;49.400;8.670;2023-05-10T04:44:40;3.75;;;1.83;;
12650;SDS011;6390;49.400;8.670;2023-05-10T04:47:06;2.20;;;1.75;;
12650;SDS011;6390;49.400;8.670;2023-05-10T04:49:32;1.80;;;1.70;;
12650;SDS011;6390;49.400;8.670;2023-05-10T04:51:58;3.70;;;1.92;;
12650;SDS011;6390;49.400;8.670;2023-05-10T04:54:24;1.73;;;1.63;;
12650;SDS011;6390;49.400;8.670;2023-05-10T04:56:51;1.88;;;1.67;;
12650;SDS011;6390;49.400;8.670;2023-05-10T04:59:17;1.77;;;1.50;;
12650;SDS011;6390;49.400;8.670;2023-05-10T05:01:43;2.20;;;1.67;;
12650;SDS011;6390;49.400;8.670;2023-05-10T05:04:09;1.63;;;1.52;;
12650;SDS011;6390;49.400;8.670;2023-05-10T05:06:35;1.80;;;1.52;;
12650;SDS011;6390;49.400;8.670;2023-05-10T05:09:01;1.85;;;1.50;;
12650;SDS011;6390;49.400;8.670;2023-05-10T05:11:28;1.98;;;1.88;;
12650;SDS011;6390;49.400;8.670;2023-05-10T05:13:54;1.70;;;1.60;;
12650;SDS011;6390;49.400;8.670;2023-05-10T05:16:20;1.75;;;1.65;;
12650;SDS011;6390;49.400;8.670;2023-05-10T05:18:46;2.03;;;1.83;;
12650;SDS011;6390;49.400;8.670;2023-05-10T05:21:19;1.88;;;1.77;;
12650;SDS011;6390;49.400;8.670;2023-05-10T05:23:46;1.90;;;1.63;;
12650;SDS011;6390;49.400;8.670;2023-05-10T05:26:12;1.90;;;1.80;;
12650;SDS011;6390;49.400;8.670;2023-05-10T05:28:39;1.75;;;1.65;;
12650;SDS011;6390;49.400;8.670;2023-05-10T05:31:06;1.90;;;1.80;;
12650;SDS011;6390;49.400;8.670;2023-05-10T05:33:33;1.63;;;1.52;;
12650;SDS011;6390;49.400;8.670;2023-05-10T05:36:03;1.60;;;1.50;;
12650;SDS011;6390;49.400;8.670;2023-05-10T05:38:30;2.72;;;1.80;;
12650;SDS011;6390;49.400;8.670;2023-05-10T05:40:56;1.65;;;1.55;;
12650;SDS011;6390;49.400;8.670;2023-05-10T05:43:23;2.60;;;1.90;;
12650;SDS011;6390;49.400;8.670;2023-05-10T05:45:49;3.92;;;2.40;;
12650;SDS011;6390;49.400;8.670;2023-05-10T05:48:16;3.13;;;2.30;;
12650;SDS011;6390;49.400;8.670;2023-05-10T05:50:42;2.30;;;2.10;;
12650;SDS011;6390;49.400;8.670;2023-05-10T05:53:09;2.10;;;1.95;;
12650;SDS011;6390;49.400;8.670;2023-05-10T05:55:35;2.05;;;1.92;;
12650;SDS011;6390;49.400;8.670;2023-05-10T05:58:01;2.00;;;1.90;;
12650;SDS011;6390;49.400;8.670;2023-05-10T06:00:27;3.55;;;1.88;;
12650;SDS011;6390;49.400;8.670;2023-05-10T06:02:54;2.25;;;1.90;;
12650;SDS011;6390;49.400;8.670;2023-05-10T06:05:20;1.85;;;1.75;;
12650;SDS011;6390;49.400;8.670;2023-05-10T06:07:46;1.80;;;1.70;;
12650;SDS011;6390;49.400;8.670;2023-05-10T06:10:12;2.30;;;2.10;;
12650;SDS011;6390;49.400;8.670;2023-05-10T06:12:38;2.08;;;1.98;;
12650;SDS011;6390;49.400;8.670;2023-05-10T06:15:04;1.88;;;1.77;;
12650;SDS011;6390;49.400;8.670;2023-05-10T06:17:31;2.25;;;1.80;;
12650;SDS011;6390;49.400;8.670;2023-05-10T06:19:57;1.92;;;1.73;;
12650;SDS011;6390;49.400;8.670;2023-05-10T06:22:23;2.40;;;1.77;;
12650;SDS011;6390;49.400;8.670;2023-05-10T06:24:49;2.75;;;2.00;;
12650;SDS011;6390;49.400;8.670;2023-05-10T06:27:16;3.33;;;2.20;;
12650;SDS011;6390;49.400;8.670;2023-05-10T06:29:42;2.08;;;1.88;;
12650;SDS011;6390;49.400;8.670;2023-05-10T06:32:08;2.17;;;1.98;;
12650;SDS011;6390;49.400;8.670;2023-05-10T06:34:34;2.03;;;1.90;;
12650;SDS011;6390;49.400;8.670;2023-05-10T06:37:00;2.90;;;2.20;;
12650;SDS011;6390;49.400;8.670;2023-05-10T06:39:28;2.47;;;2.28;;
12650;SDS011;6390;49.400;8.670;2023-05-10T06:41:54;2.00;;;1.90;;
12650;SDS011;6390;49.400;8.670;2023-05-10T06:44:20;2.63;;;2.33;;
12650;SDS011;6390;49.400;8.670;2023-05-10T06:46:46;2.03;;;1.92;;
12650;SDS011;6390;49.400;8.670;2023-05-10T06:49:12;2.45;;;2.25;;
12650;SDS011;6390;49.400;8.670;2023-05-10T06:51:38;2.28;;;2.17;;
12650;SDS011;6390;49.400;8.670;2023-05-10T06:54:05;2.40;;;2.20;;
12650;SDS011;6390;49.400;8.670;2023-05-10T06:56:31;2.28;;;2.08;;
12650;SDS011;6390;49.400;8.670;2023-05-10T06:58:58;2.40;;;2.08;;
12650;SDS011;6390;49.400;8.670;2023-05-10T07:01:24;2.42;;;2.20;;
12650;SDS011;6390;49.400;8.670;2023-05-10T07:03:50;2.40;;;2.20;;
12650;SDS011;6390;49.400;8.670;2023-05-10T07:06:16;3.65;;;2.25;;
12650;SDS011;6390;49.400;8.670;2023-05-10T07:08:42;2.67;;;2.42;;
12650;SDS011;6390;49.400;8.670;2023-05-10T07:11:08;2.45;;;2.20;;
12650;SDS011;6390;49.400;8.670;2023-05-10T07:13:35;2.40;;;2.20;;
12650;SDS011;6390;49.400;8.670;2023-05-10T07:16:02;2.03;;;1.92;;
12650;SDS011;6390;49.400;8.670;2023-05-10T07:18:31;2.22;;;1.98;;
12650;SDS011;6390;49.400;8.670;2023-05-10T07:20:57;1.92;;;1.83;;
12650;SDS011;6390;49.400;8.670;2023-05-10T07:23:23;1.75;;;1.65;;
12650;SDS011;6390;49.400;8.670;2023-05-10T07:25:50;2.40;;;1.50;;
12650;SDS011;6390;49.400;8.670;2023-05-10T07:28:17;1.45;;;1.35;;
12650;SDS011;6390;49.400;8.670;2023-05-10T07:30:43;1.52;;;1.42;;
12650;SDS011;6390;49.400;8.670;2023-05-10T07:33:10;3.15;;;1.70;;
12650;SDS011;6390;49.400;8.670;2023-05-10T07:35:39;1.60;;;1.30;;
12650;SDS011;6390;49.400;8.670;2023-05-10T07:38:05;1.67;;;1.58;;
12650;SDS011;6390;49.400;8.670;2023-05-10T07:40:31;1.23;;;1.15;;
12650;SDS011;6390;49.400;8.670;2023-05-10T07:42:57;1.77;;;1.30;;
12650;SDS011;6390;49.400;8.670;2023-05-10T07:45:26;1.30;;;1.20;;
12650;SDS011;6390;49.400;8.670;2023-05-10T07:47:52;1.30;;;1.20;;
12650;SDS011;6390;49.400;8.670;2023-05-10T07:50:18;1.42;;;1.30;;
12650;SDS011;6390;49.400;8.670;2023-05-10T07:52:46;2.53;;;1.20;;
12650;SDS011;6390;49.400;8.670;2023-05-10T07:55:12;1.30;;;1.20;;
12650;SDS011;6390;49.400;8.670;2023-05-10T07:57:39;1.17;;;1.10;;
12650;SDS011;6390;49.400;8.670;2023-05-10T08:00:05;1.35;;;1.25;;
12650;SDS011;6390;49.400;8.670;2023-05-10T08:02:32;1.75;;;1.20;;
12650;SDS011;6390;49.400;8.670;2023-05-10T08:05:00;1.52;;;1.10;;
12650;SDS011;6390;49.400;8.670;2023-05-10T08:07:26;1.30;;;1.20;;
12650;SDS011;6390;49.400;8.670;2023-05-10T08:09:52;1.45;;;1.17;;
12650;SDS011;6390;49.400;8.670;2023-05-10T08:12:18;1.13;;;1.02;;
12650;SDS011;6390;49.400;8.670;2023-05-10T08:14:44;1.20;;;0.98;;
12650;SDS011;6390;49.400;8.670;2023-05-10T08:17:10;1.10;;;1.08;;
12650;SDS011;6390;49.400;8.670;2023-05-10T08:19:36;1.13;;;1.02;;
12650;SDS011;6390;49.400;8.670;2023-05-10T08:22:03;1.70;;;1.20;;
12650;SDS011;6390;49.400;8.670;2023-05-10T08:24:29;1.38;;;1.23;;
12650;SDS011;6390;49.400;8.670;2023-05-10T08:26:55;2.10;;;1.25;;
12650;SDS011;6390;49.400;8.670;2023-05-10T08:29:21;1.02;;;0.95;;
12650;SDS011;6390;49.400;8.670;2023-05-10T08:31:47;1.30;;;1.20;;
12650;SDS011;6390;49.400;8.670;2023-05-10T08:34:13;1.20;;;1.10;;
12650;SDS011;6390;49.400;8.670;2023-05-10T08:36:39;1.25;;;1.15;;
12650;SDS011;6390;49.400;8.670;2023-05-10T08:39:06;1.33;;;1.23;;
12650;SDS011;6390;49.400;8.670;2023-05-10T08:41:32;1.10;;;1.00;;
12650;SDS011;6390;49.400;8.670;2023-05-10T08:43:59;0.85;;;0.85;;
12650;SDS011;6390;49.400;8.670;2023-05-10T08:46:29;1.27;;;1.17;;
12650;SDS011;6390;49.400;8.670;2023-05-10T08:48:56;1.08;;;1.08;;
12650;SDS011;6390;49.400;8.670;2023-05-10T08:51:24;1.20;;;1.10;;
12650;SDS011;6390;49.400;8.670;2023-05-10T08:53:51;1.20;;;1.10;;
12650;SDS011;6390;49.400;8.670;2023-05-10T08:56:18;0.80;;;0.80;;
12650;SDS011;6390;49.400;8.670;2023-05-10T08:58:45;1.88;;;1.10;;
12650;SDS011;6390;49.400;8.670;2023-05-10T09:01:12;0.80;;;0.80;;
12650;SDS011;6390;49.400;8.670;2023-05-10T09:03:38;1.15;;;0.90;;
12650;SDS011;6390;49.400;8.670;2023-05-10T09:06:04;1.00;;;0.90;;
12650;SDS011;6390;49.400;8.670;2023-05-10T09:08:31;0.90;;;0.90;;
12650;SDS011;6390;49.400;8.670;2023-05-10T09:10:59;1.00;;;1.00;;
12650;SDS011;6390;49.400;8.670;2023-05-10T09:13:26;0.70;;;0.70;;
12650;SDS011;6390;49.400;8.670;2023-05-10T09:15:53;0.80;;;0.80;;
12650;SDS011;6390;49.400;8.670;2023-05-10T09:18:19;0.95;;;0.95;;
12650;SDS011;6390;49.400;8.670;2023-05-10T09:20:45;0.98;;;0.90;;
12650;SDS011;6390;49.400;8.670;2023-05-10T09:23:11;0.80;;;0.80;;
12650;SDS011;6390;49.400;8.670;2023-05-10T09:25:37;1.20;;;1.10;;
12650;SDS011;6390;49.400;8.670;2023-05-10T09:28:07;1.38;;;1.27;;
12650;SDS011;6390;49.400;8.670;2023-05-10T09:30:34;0.90;;;0.90;;
12650;SDS011;6390;49.400;8.670;2023-05-10T09:33:00;1.00;;;0.90;;
12650;SDS011;6390;49.400;8.670;2023-05-10T09:35:28;1.02;;;0.80;;
12650;SDS011;6390;49.400;8.670;2023-05-10T09:37:57;0.80;;;0.80;;
12650;SDS011;6390;49.400;8.670;2023-05-10T09:40:26;1.10;;;1.00;;
12650;SDS011;6390;49.400;8.670;2023-05-10T09:45:23;0.98;;;0.93;;
12650;SDS011;6390;49.400;8.670;2023-05-10T09:47:51;1.60;;;1.10;;
12650;SDS011;6390;49.400;8.670;2023-05-10T09:50:17;1.45;;;1.20;;
12650;SDS011;6390;49.400;8.670;2023-05-10T09:52:49;2.78;;;1.20;;
12650;SDS011;6390;49.400;8.670;2023-05-10T09:55:21;0.90;;;0.90;;
12650;SDS011;6390;49.400;8.670;2023-05-10T09:57:49;1.27;;;1.00;;
12650;SDS011;6390;49.400;8.670;2023-05-10T10:00:25;0.85;;;0.85;;
12650;SDS011;6390;49.400;8.670;2023-05-10T10:02:56;0.98;;;0.88;;
12650;SDS011;6390;49.400;8.670;2023-05-10T10:05:28;0.95;;;0.90;;
12650;SDS011;6390;49.400;8.670;2023-05-10T10:07:59;0.98;;;0.93;;
12650;SDS011;6390;49.400;8.670;2023-05-10T10:10:28;1.50;;;0.77;;
12650;SDS011;6390;49.400;8.670;2023-05-10T10:12:54;1.10;;;1.00;;
12650;SDS011;6390;49.400;8.670;2023-05-10T10:15:21;1.25;;;1.10;;
12650;SDS011;6390;49.400;8.670;2023-05-10T10:17:48;1.10;;;1.00;;
12650;SDS011;6390;49.400;8.670;2023-05-10T10:20:16;1.20;;;1.10;;
12650;SDS011;6390;49.400;8.670;2023-05-10T10:22:43;1.85;;;1.20;;
12650;SDS011;6390;49.400;8.670;2023-05-10T10:25:11;1.30;;;1.20;;
12650;SDS011;6390;49.400;8.670;2023-05-10T10:30:23;1.40;;;1.30;;
12650;SDS011;6390;49.400;8.670;2023-05-10T10:33:06;1.40;;;1.30;;
12650;SDS011;6390;49.400;8.670;2023-05-10T10:35:49;1.50;;;1.38;;
12650;SDS011;6390;49.400;8.670;2023-05-10T10:38:16;1.30;;;1.20;;
12650;SDS011;6390;49.400;8.670;2023-05-10T10:40:42;1.40;;;1.13;;
12650;SDS011;6390;49.400;8.670;2023-05-10T10:43:24;1.15;;;1.10;;
12650;SDS011;6390;49.400;8.670;2023-05-10T10:46:11;1.40;;;1.30;;
12650;SDS011;6390;49.400;8.670;2023-05-10T10:48:38;0.90;;;0.90;;
12650;SDS011;6390;49.400;8.670;2023-05-10T10:51:16;1.00;;;1.00;;
12650;SDS011;6390;49.400;8.670;2023-05-10T10:53:42;1.23;;;1.13;;
12650;SDS011;6390;49.400;8.670;2023-05-10T10:56:12;0.90;;;0.90;;
12650;SDS011;6390;49.400;8.670;2023-05-10T10:58:40;1.33;;;1.10;;
12650;SDS011;6390;49.400;8.670;2023-05-10T11:01:11;0.98;;;0.90;;
12650;SDS011;6390;49.400;8.670;2023-05-10T11:03:39;0.80;;;0.80;;
12650;SDS011;6390;49.400;8.670;2023-05-10T11:06:06;0.93;;;0.82;;
12650;SDS011;6390;49.400;8.670;2023-05-10T11:08:34;1.70;;;0.75;;
12650;SDS011;6390;49.400;8.670;2023-05-10T11:11:13;0.70;;;0.70;;
12650;SDS011;6390;49.400;8.670;2023-05-10T11:13:41;0.60;;;0.60;;
12650;SDS011;6390;49.400;8.670;2023-05-10T11:16:14;1.10;;;0.82;;
12650;SDS011;6390;49.400;8.670;2023-05-10T11:18:51;3.38;;;0.80;;
12650;SDS011;6390;49.400;8.670;2023-05-10T11:21:19;0.70;;;0.70;;
12650;SDS011;6390;49.400;8.670;2023-05-10T11:26:22;1.00;;;0.60;;
12650;SDS011;6390;49.400;8.670;2023-05-10T11:29:00;0.70;;;0.70;;
12650;SDS011;6390;49.400;8.670;2023-05-10T11:31:27;0.63;;;0.63;;
12650;SDS011;6390;49.400;8.670;2023-05-10T11:33:54;0.60;;;0.60;;
12650;SDS011;6390;49.400;8.670;2023-05-10T11:36:27;0.60;;;0.60;;
12650;SDS011;6390;49.400;8.670;2023-05-10T11:38:56;1.35;;;0.73;;
12650;SDS011;6390;49.400;8.670;2023-05-10T11:41:23;1.55;;;0.63;;
12650;SDS011;6390;49.400;8.670;2023-05-10T11:43:51;0.80;;;0.80;;
12650;SDS011;6390;49.400;8.670;2023-05-10T11:46:21;1.92;;;0.70;;
12650;SDS011;6390;49.400;8.670;2023-05-10T11:48:50;0.68;;;0.50;;
12650;SDS011;6390;49.400;8.670;2023-05-10T11:51:23;0.60;;;0.60;;
12650;SDS011;6390;49.400;8.670;2023-05-10T11:53:54;1.08;;;0.80;;
12650;SDS011;6390;49.400;8.670;2023-05-10T11:56:21;1.40;;;0.70;;
12650;SDS011;6390;49.400;8.670;2023-05-10T11:58:54;1.00;;;0.60;;
12650;SDS011;6390;49.400;8.670;2023-05-10T12:01:23;0.63;;;0.63;;
12650;SDS011;6390;49.400;8.670;2023-05-10T12:03:51;1.02;;;0.70;;
12650;SDS011;6390;49.400;8.670;2023-05-10T12:06:19;0.93;;;0.70;;
12650;SDS011;6390;49.400;8.670;2023-05-10T12:08:46;1.20;;;0.65;;
12650;SDS011;6390;49.400;8.670;2023-05-10T12:11:17;1.55;;;0.70;;
12650;SDS011;6390;49.400;8.670;2023-05-10T12:13:44;0.82;;;0.60;;
12650;SDS011;6390;49.400;8.670;2023-05-10T12:18:50;0.82;;;0.60;;
12650;SDS011;6390;49.400;8.670;2023-05-10T12:21:19;0.80;;;0.80;;
12650;SDS011;6390;49.400;8.670;2023-05-10T12:23:46;0.95;;;0.70;;
12650;SDS011;6390;49.400;8.670;2023-05-10T12:26:22;0.70;;;0.70;;
12650;SDS011;6390;49.400;8.670;2023-05-10T12:28:49;0.68;;;0.68;;
12650;SDS011;6390;49.400;8.670;2023-05-10T12:31:16;0.65;;;0.60;;
12650;SDS011;6390;49.400;8.670;2023-05-10T12:33:42;0.82;;;0.60;;
12650;SDS011;6390;49.400;8.670;2023-05-10T12:36:11;0.95;;;0.70;;
12650;SDS011;6390;49.400;8.670;2023-05-10T12:38:39;1.20;;;0.90;;
12650;SDS011;6390;49.400;8.670;2023-05-10T12:41:09;1.35;;;0.75;;
12650;SDS011;6390;49.400;8.670;2023-05-10T12:43:39;0.55;;;0.52;;
12650;SDS011;6390;49.400;8.670;2023-05-10T12:46:06;2.38;;;1.20;;
12650;SDS011;6390;49.400;8.670;2023-05-10T12:48:35;2.25;;;0.80;;
12650;SDS011;6390;49.400;8.670;2023-05-10T12:51:03;0.90;;;0.70;;
12650;SDS011;6390;49.400;8.670;2023-05-10T12:53:30;0.98;;;0.70;;
12650;SDS011;6390;49.400;8.670;2023-05-10T12:55:57;0.73;;;0.73;;
12650;SDS011;6390;49.400;8.670;2023-05-10T12:58:23;1.20;;;0.90;;
12650;SDS011;6390;49.400;8.670;2023-05-10T13:00:49;0.82;;;0.70;;
12650;SDS011;6390;49.400;8.670;2023-05-10T13:03:16;1.30;;;0.82;;
12650;SDS011;6390;49.400;8.670;2023-05-10T13:05:42;0.98;;;0.90;;
12650;SDS011;6390;49.400;8.670;2023-05-10T13:08:09;1.10;;;0.80;;
12650;SDS011;6390;49.400;8.670;2023-05-10T13:10:35;0.98;;;0.85;;
12650;SDS011;6390;49.400;8.670;2023-05-10T13:13:01;0.60;;;0.60;;
12650;SDS011;6390;49.400;8.670;2023-05-10T13:15:27;0.90;;;0.70;;
12650;SDS011;6390;49.400;8.670;2023-05-10T13:17:53;2.30;;;0.68;;
12650;SDS011;6390;49.400;8.670;2023-05-10T13:20:20;0.63;;;0.57;;
12650;SDS011;6390;49.400;8.670;2023-05-10T13:22:46;2.13;;;0.90;;
12650;SDS011;6390;49.400;8.670;2023-05-10T13:25:12;0.70;;;0.70;;
12650;SDS011;6390;49.400;8.670;2023-05-10T13:27:39;2.13;;;0.73;;
12650;SDS011;6390;49.400;8.670;2023-05-10T13:30:06;1.50;;;0.77;;
12650;SDS011;6390;49.400;8.670;2023-05-10T13:32:33;0.60;;;0.60;;
12650;SDS011;6390;49.400;8.670;2023-05-10T13:34:59;0.75;;;0.75;;
12650;SDS011;6390;49.400;8.670;2023-05-10T13:37:26;0.73;;;0.50;;
12650;SDS011;6390;49.400;8.670;2023-05-10T13:39:52;1.08;;;0.70;;
12650;SDS011;6390;49.400;8.670;2023-05-10T13:42:18;0.95;;;0.80;;
12650;SDS011;6390;49.400;8.670;2023-05-10T13:44:44;0.95;;;0.70;;
12650;SDS011;6390;49.400;8.670;2023-05-10T13:47:10;0.70;;;0.68;;
12650;SDS011;6390;49.400;8.670;2023-05-10T13:49:37;0.60;;;0.60;;
12650;SDS011;6390;49.400;8.670;2023-05-10T13:52:03;0.60;;;0.60;;
12650;SDS011;6390;49.400;8.670;2023-05-10T13:54:31;0.73;;;0.57;;
12650;SDS011;6390;49.400;8.670;2023-05-10T13:57:01;0.38;;;0.38;;
12650;SDS011;6390;49.400;8.670;2023-05-10T13:59:28;0.95;;;0.50;;
12650;SDS011;6390;49.400;8.670;2023-05-10T14:01:56;0.63;;;0.63;;
12650;SDS011;6390;49.400;8.670;2023-05-10T14:04:23;0.70;;;0.70;;
12650;SDS011;6390;49.400;8.670;2023-05-10T14:06:49;0.70;;;0.50;;
12650;SDS011;6390;49.400;8.670;2023-05-10T14:09:15;0.50;;;0.50;;
12650;SDS011;6390;49.400;8.670;2023-05-10T14:11:42;1.08;;;0.40;;
12650;SDS011;6390;49.400;8.670;2023-05-10T14:14:09;0.50;;;0.50;;
12650;SDS011;6390;49.400;8.670;2023-05-10T14:16:35;0.70;;;0.70;;
12650;SDS011;6390;49.400;8.670;2023-05-10T14:19:02;0.47;;;0.47;;
12650;SDS011;6390;49.400;8.670;2023-05-10T14:21:28;0.98;;;0.75;;
12650;SDS011;6390;49.400;8.670;2023-05-10T14:23:57;0.70;;;0.60;;
12650;SDS011;6390;49.400;8.670;2023-05-10T14:26:23;1.65;;;0.50;;
12650;SDS011;6390;49.400;8.670;2023-05-10T14:28:49;0.60;;;0.60;;
12650;SDS011;6390;49.400;8.670;2023-05-10T14:31:15;1.15;;;0.70;;
12650;SDS011;6390;49.400;8.670;2023-05-10T14:33:41;0.80;;;0.80;;
12650;SDS011;6390;49.400;8.670;2023-05-10T14:36:07;0.50;;;0.50;;
12650;SDS011;6390;49.400;8.670;2023-05-10T14:38:34;0.63;;;0.50;;
12650;SDS011;6390;49.400;8.670;2023-05-10T14:41:00;0.50;;;0.50;;
12650;SDS011;6390;49.400;8.670;2023-05-10T14:43:26;0.30;;;0.30;;
12650;SDS011;6390;49.400;8.670;2023-05-10T14:45:53;0.30;;;0.30;;
12650;SDS011;6390;49.400;8.670;2023-05-10T14:48:19;0.63;;;0.50;;
12650;SDS011;6390;49.400;8.670;2023-05-10T14:50:46;0.50;;;0.50;;
12650;SDS011;6390;49.400;8.670;2023-05-10T14:53:12;0.38;;;0.38;;
12650;SDS011;6390;49.400;8.670;2023-05-10T14:55:38;0.38;;;0.25;;
12650;SDS011;6390;49.400;8.670;2023-05-10T14:58:04;0.40;;;0.40;;
12650;SDS011;6390;49.400;8.670;2023-05-10T15:00:31;1.20;;;0.40;;
12650;SDS011;6390;49.400;8.670;2023-05-10T15:02:57;0.45;;;0.45;;
12650;SDS011;6390;49.400;8.670;2023-05-10T15:05:23;0.57;;;0.57;;
12650;SDS011;6390;49.400;8.670;2023-05-10T15:07:49;0.47;;;0.43;;
12650;SDS011;6390;49.400;8.670;2023-05-10T15:10:15;0.57;;;0.57;;
12650;SDS011;6390;49.400;8.670;2023-05-10T15:12:42;0.50;;;0.50;;
12650;SDS011;6390;49.400;8.670;2023-05-10T15:15:08;0.45;;;0.45;;
12650;SDS011;6390;49.400;8.670;2023-05-10T15:17:34;0.43;;;0.43;;
12650;SDS011;6390;49.400;8.670;2023-05-10T15:20:01;0.80;;;0.80;;
12650;SDS011;6390;49.400;8.670;2023-05-10T15:22:30;0.40;;;0.40;;
12650;SDS011;6390;49.400;8.670;2023-05-10T15:24:57;0.47;;;0.47;;
12650;SDS011;6390;49.400;8.670;2023-05-10T15:27:24;4.50;;;0.70;;
12650;SDS011;6390;49.400;8.670;2023-05-10T15:29:50;0.52;;;0.50;;
12650;SDS011;6390;49.400;8.670;2023-05-10T15:32:17;1.02;;;0.40;;
12650;SDS011;6390;49.400;8.670;2023-05-10T15:34:43;3.17;;;0.60;;
12650;SDS011;6390;49.400;8.670;2023-05-10T15:37:09;0.60;;;0.60;;
12650;SDS011;6390;49.400;8.670;2023-05-10T15:39:36;0.40;;;0.40;;
12650;SDS011;6390;49.400;8.670;2023-05-10T15:42:02;0.60;;;0.60;;
12650;SDS011;6390;49.400;8.670;2023-05-10T15:44:28;0.70;;;0.40;;
12650;SDS011;6390;49.400;8.670;2023-05-10T15:46:54;0.50;;;0.50;;
12650;SDS011;6390;49.400;8.670;2023-05-10T15:49:21;0.50;;;0.50;;
12650;SDS011;6390;49.400;8.670;2023-05-10T15:51:47;0.85;;;0.57;;
12650;SDS011;6390;49.400;8.670;2023-05-10T15:54:13;0.65;;;0.40;;
12650;SDS011;6390;49.400;8.670;2023-05-10T15:56:39;0.45;;;0.45;;
12650;SDS011;6390;49.400;8.670;2023-05-10T15:59:05;0.60;;;0.60;;
12650;SDS011;6390;49.400;8.670;2023-05-10T16:01:32;0.50;;;0.50;;
12650;SDS011;6390;49.400;8.670;2023-05-10T16:03:59;0.70;;;0.50;;
12650;SDS011;6390;49.400;8.670;2023-05-10T16:06:25;0.45;;;0.45;;
12650;SDS011;6390;49.400;8.670;2023-05-10T16:08:51;2.33;;;0.73;;
12650;SDS011;6390;49.400;8.670;2023-05-10T16:11:18;0.60;;;0.60;;
12650;SDS011;6390;49.400;8.670;2023-05-10T16:13:45;0.80;;;0.52;;
12650;SDS011;6390;49.400;8.670;2023-05-10T16:16:11;0.50;;;0.43;;
12650;SDS011;6390;49.400;8.670;2023-05-10T16:18:37;0.40;;;0.40;;
12650;SDS011;6390;49.400;8.670;2023-05-10T16:21:03;0.52;;;0.45;;
12650;SDS011;6390;49.400;8.670;2023-05-10T16:23:29;0.60;;;0.60;;
12650;SDS011;6390;49.400;8.670;2023-05-10T16:25:55;0.55;;;0.50;;
12650;SDS011;6390;49.400;8.670;2023-05-10T16:28:21;0.70;;;0.70;;
12650;SDS011;6390;49.400;8.670;2023-05-10T16:30:47;0.60;;;0.60;;
12650;SDS011;6390;49.400;8.670;2023-05-10T16:33:13;0.57;;;0.57;;
12650;SDS011;6390;49.400;8.670;2023-05-10T16:35:40;1.08;;;0.65;;
12650;SDS011;6390;49.400;8.670;2023-05-10T16:38:06;0.63;;;0.60;;
12650;SDS011;6390;49.400;8.670;2023-05-10T16:40:32;0.45;;;0.45;;
12650;SDS011;6390;49.400;8.670;2023-05-10T16:42:58;2.10;;;0.70;;
12650;SDS011;6390;49.400;8.670;2023-05-10T16:45:24;0.63;;;0.57;;
12650;SDS011;6390;49.400;8.670;2023-05-10T16:47:51;0.50;;;0.50;;
12650;SDS011;6390;49.400;8.670;2023-05-10T16:50:20;0.50;;;0.50;;
12650;SDS011;6390;49.400;8.670;2023-05-10T16:52:46;0.30;;;0.30;;
12650;SDS011;6390;49.400;8.670;2023-05-10T16:55:12;0.63;;;0.47;;
12650;SDS011;6390;49.400;8.670;2023-05-10T16:57:38;0.82;;;0.60;;
12650;SDS011;6390;49.400;8.670;2023-05-10T17:00:05;0.47;;;0.47;;
12650;SDS011;6390;49.400;8.670;2023-05-10T17:02:32;0.40;;;0.40;;
12650;SDS011;6390;49.400;8.670;2023-05-10T17:04:58;0.30;;;0.30;;
12650;SDS011;6390;49.400;8.670;2023-05-10T17:07:24;0.45;;;0.45;;
12650;SDS011;6390;49.400;8.670;2023-05-10T17:09:53;1.63;;;0.55;;
12650;SDS011;6390;49.400;8.670;2023-05-10T17:12:19;0.60;;;0.45;;
12650;SDS011;6390;49.400;8.670;2023-05-10T17:14:45;0.80;;;0.60;;
12650;SDS011;6390;49.400;8.670;2023-05-10T17:17:11;0.43;;;0.43;;
12650;SDS011;6390;49.400;8.670;2023-05-10T17:19:38;0.30;;;0.30;;
12650;SDS011;6390;49.400;8.670;2023-05-10T17:22:04;0.60;;;0.60;;
12650;SDS011;6390;49.400;8.670;2023-05-10T17:24:30;0.47;;;0.40;;
12650;SDS011;6390;49.400;8.670;2023-05-10T17:26:56;0.88;;;0.60;;
12650;SDS011;6390;49.400;8.670;2023-05-10T17:29:24;0.40;;;0.40;;
12650;SDS011;6390;49.400;8.670;2023-05-10T17:31:51;0.77;;;0.60;;
12650;SDS011;6390;49.400;8.670;2023-05-10T17:34:17;0.65;;;0.65;;
12650;SDS011;6390;49.400;8.670;2023-05-10T17:36:43;1.40;;;0.60;;
12650;SDS011;6390;49.400;8.670;2023-05-10T17:39:09;2.30;;;0.65;;
12650;SDS011;6390;49.400;8.670;2023-05-10T17:41:35;0.47;;;0.47;;
12650;SDS011;6390;49.400;8.670;2023-05-10T17:44:01;0.73;;;0.57;;
12650;SDS011;6390;49.400;8.670;2023-05-10T17:46:27;0.60;;;0.60;;
12650;SDS011;6390;49.400;8.670;2023-05-10T17:48:54;0.40;;;0.40;;
12650;SDS011;6390;49.400;8.670;2023-05-10T17:51:20;0.52;;;0.50;;
12650;SDS011;6390;49.400;8.670;2023-05-10T17:53:46;2.13;;;0.75;;
12650;SDS011;6390;49.400;8.670;2023-05-10T17:56:12;0.70;;;0.47;;
12650;SDS011;6390;49.400;8.670;2023-05-10T17:58:38;0.60;;;0.40;;
12650;SDS011;6390;49.400;8.670;2023-05-10T18:01:04;0.70;;;0.70;;
12650;SDS011;6390;49.400;8.670;2023-05-10T18:03:30;1.00;;;0.90;;
12650;SDS011;6390;49.400;8.670;2023-05-10T18:05:56;0.68;;;0.50;;
12650;SDS011;6390;49.400;8.670;2023-05-10T18:08:22;0.50;;;0.50;;
12650;SDS011;6390;49.400;8.670;2023-05-10T18:10:51;0.60;;;0.60;;
12650;SDS011;6390;49.400;8.670;2023-05-10T18:13:17;0.60;;;0.60;;
12650;SDS011;6390;49.400;8.670;2023-05-10T18:15:43;1.95;;;0.80;;
12650;SDS011;6390;49.400;8.670;2023-05-10T18:18:09;1.25;;;0.80;;
12650;SDS011;6390;49.400;8.670;2023-05-10T18:20:36;2.30;;;0.70;;
12650;SDS011;6390;49.400;8.670;2023-05-10T18:23:02;0.73;;;0.73;;
12650;SDS011;6390;49.400;8.670;2023-05-10T18:25:28;0.93;;;0.52;;
12650;SDS011;6390;49.400;8.670;2023-05-10T18:27:55;0.80;;;0.80;;
12650;SDS011;6390;49.400;8.670;2023-05-10T18:30:21;0.70;;;0.60;;
12650;SDS011;6390;49.400;8.670;2023-05-10T18:32:47;0.60;;;0.60;;
12650;SDS011;6390;49.400;8.670;2023-05-10T18:35:13;0.82;;;0.80;;
12650;SDS011;6390;49.400;8.670;2023-05-10T18:37:40;0.55;;;0.55;;
12650;SDS011;6390;49.400;8.670;2023-05-10T18:40:07;0.82;;;0.65;;
12650;SDS011;6390;49.400;8.670;2023-05-10T18:42:35;0.88;;;0.60;;
12650;SDS011;6390;49.400;8.670;2023-05-10T18:45:01;0.75;;;0.75;;